Sheffield, Pennsylvania
Current Conditions -  °F | °C
As of 3:53 PM on Tuesday 27 Jan 2015 (Local Time) from KBFD Reporting Station
Overcast Overcast  
Wind Chill:   Ceiling: 7000
Heat Index: 17°   Visibility: 10mi
Dew Point:   Wind: 10mph
Humidity: 56%   Direction: 340°NNW
Pressure: 29.86"   Gusts: NA
Location:  41.7°N, 79.04°W
Report Text: KBFD 272053Z AUTO 34009KT 10SM OVC070 M08/M16 A2986 RMK AO2 SLP144 T10831156 53012
Loading
Personal Weather Stations






























Interactive Weather Map New forecast layout! Learn more

10-Day Weather Forecast

Advertisements
Track Severe Weather on mobile